Time,TemperatureF,DewpointF,PressureIn,WindDirection,WindDirectionDegrees,WindSpeedMPH,WindSpeedGustMPH,Humidity,HourlyPrecipIn,Conditions,Clouds,dailyrainin,SoftwareType,DateUTC
2013-04-09 00:00:00,51.1,43.2,-100.00,SE,142,3.0,4.0,74,0.00,,,0.00,meteohub,2013-04-09 04:00:00,
2013-04-09 00:02:00,50.0,42.1,-100.00,SSE,150,0.0,4.0,74,0.00,,,0.00,meteohub,2013-04-09 04:02:00,
2013-04-09 00:03:00,50.7,42.8,-100.00,SSE,150,0.0,4.0,74,0.00,,,0.00,meteohub,2013-04-09 04:03:00,
2013-04-09 00:07:00,50.0,42.1,-100.00,SSE,156,2.0,4.0,74,0.00,,,0.00,meteohub,2013-04-09 04:07:00,
2013-04-09 00:12:00,49.3,41.4,-100.00,SSE,147,3.0,4.0,74,0.00,,,0.00,meteohub,2013-04-09 04:12:00,
2013-04-09 00:17:00,50.0,42.4,-100.00,SE,137,2.0,5.0,75,0.00,,,0.00,meteohub,2013-04-09 04:17:00,
2013-04-09 00:22:00,49.5,41.9,-100.00,East,99,1.0,6.0,75,0.00,,,0.00,meteohub,2013-04-09 04:22:00,
2013-04-09 00:27:00,49.6,42.4,-100.00,SW,225,2.0,6.0,76,0.00,,,0.00,meteohub,2013-04-09 04:27:00,
2013-04-09 00:32:00,49.3,42.1,-100.00,SSE,167,3.0,6.0,76,0.00,,,0.00,meteohub,2013-04-09 04:32:00,
2013-04-09 00:37:00,48.9,41.7,-100.00,South,182,2.0,5.0,76,0.00,,,0.00,meteohub,2013-04-09 04:37:00,
2013-04-09 00:42:00,49.3,42.1,-100.00,SE,146,0.0,5.0,76,0.00,,,0.00,meteohub,2013-04-09 04:42:00,
2013-04-09 00:47:00,49.5,42.3,-100.00,SSE,158,0.0,5.0,76,0.00,,,0.00,meteohub,2013-04-09 04:47:00,
2013-04-09 00:52:00,48.9,41.4,-100.00,SSE,151,0.0,4.0,75,0.00,,,0.00,meteohub,2013-04-09 04:52:00,
2013-04-09 00:57:00,49.3,41.7,-100.00,SSE,157,0.0,4.0,75,0.00,,,0.00,meteohub,2013-04-09 04:57:00,
2013-04-09 01:02:00,48.9,41.7,-100.00,South,181,2.0,5.0,76,0.00,,,0.00,meteohub,2013-04-09 05:02:00,
2013-04-09 01:08:00,48.4,41.2,-100.00,WSW,247,1.0,7.0,76,0.00,,,0.00,meteohub,2013-04-09 05:08:00,
2013-04-09 01:13:00,48.6,41.4,-100.00,SE,142,4.0,7.0,76,0.00,,,0.00,meteohub,2013-04-09 05:13:00,
2013-04-09 01:18:00,48.6,41.4,-100.00,South,185,1.0,7.0,76,0.00,,,0.00,meteohub,2013-04-09 05:18:00,
2013-04-09 01:24:00,48.4,41.2,-100.00,WSW,241,0.0,5.0,76,0.00,,,0.00,meteohub,2013-04-09 05:24:00,
2013-04-09 01:29:00,48.4,41.2,-100.00,SSW,212,1.0,5.0,76,0.00,,,0.00,meteohub,2013-04-09 05:29:00,
2013-04-09 01:34:00,48.0,41.2,-100.00,WNW,286,0.0,5.0,77,0.00,,,0.00,meteohub,2013-04-09 05:34:00,
2013-04-09 01:39:00,47.8,40.6,-100.00,SSW,194,0.0,5.0,76,0.00,,,0.00,meteohub,2013-04-09 05:39:00,
2013-04-09 01:44:00,48.0,40.8,-100.00,SSW,194,0.0,4.0,76,0.00,,,0.00,meteohub,2013-04-09 05:44:00,
2013-04-09 01:49:00,48.6,41.4,-100.00,South,182,0.0,4.0,76,0.00,,,0.00,meteohub,2013-04-09 05:49:00,
2013-04-09 01:54:00,47.7,40.8,-100.00,SSW,212,2.0,6.0,77,0.00,,,0.00,meteohub,2013-04-09 05:54:00,
2013-04-09 02:00:00,47.3,40.5,-100.00,SW,216,1.0,6.0,77,0.00,,,0.00,meteohub,2013-04-09 06:00:00,
2013-04-09 02:05:00,47.7,40.5,-100.00,SW,216,0.0,6.0,76,0.00,,,0.00,meteohub,2013-04-09 06:05:00,
2013-04-09 02:10:00,47.7,40.5,-100.00,SSW,206,3.0,5.0,76,0.00,,,0.00,meteohub,2013-04-09 06:10:00,
2013-04-09 02:15:00,47.8,40.6,-100.00,SSW,213,0.0,5.0,76,0.00,,,0.00,meteohub,2013-04-09 06:15:00,
2013-04-09 02:21:00,47.7,40.5,-100.00,SW,215,4.0,5.0,76,0.00,,,0.00,meteohub,2013-04-09 06:21:00,
2013-04-09 02:26:00,47.1,39.9,-100.00,SE,146,0.0,5.0,76,0.00,,,0.00,meteohub,2013-04-09 06:26:00,
2013-04-09 02:31:00,47.7,40.5,-100.00,SW,216,2.0,5.0,76,0.00,,,0.00,meteohub,2013-04-09 06:31:00,
2013-04-09 02:36:00,48.4,41.2,-100.00,SW,219,0.0,5.0,76,0.00,,,0.00,meteohub,2013-04-09 06:36:00,
2013-04-09 02:42:00,47.3,40.1,-100.00,South,178,0.0,5.0,76,0.00,,,0.00,meteohub,2013-04-09 06:42:00,
2013-04-09 02:47:00,46.8,39.9,-100.00,SSW,194,3.0,5.0,77,0.00,,,0.00,meteohub,2013-04-09 06:47:00,
2013-04-09 02:53:00,47.7,40.8,-100.00,South,189,4.0,5.0,77,0.00,,,0.00,meteohub,2013-04-09 06:53:00,
2013-04-09 02:58:00,47.7,40.8,-100.00,SSW,192,1.0,4.0,77,0.00,,,0.00,meteohub,2013-04-09 06:58:00,
2013-04-09 03:03:00,47.3,40.5,-100.00,SE,127,0.0,4.0,77,0.00,,,0.00,meteohub,2013-04-09 07:03:00,
2013-04-09 03:09:00,47.3,40.5,-100.00,SE,140,0.0,5.0,77,0.00,,,0.00,meteohub,2013-04-09 07:09:00,
2013-04-09 03:14:00,46.8,40.3,-100.00,SSW,192,0.0,5.0,78,0.00,,,0.00,meteohub,2013-04-09 07:14:00,
2013-04-09 03:19:00,47.1,40.6,-100.00,SSW,192,0.0,5.0,78,0.00,,,0.00,meteohub,2013-04-09 07:19:00,
2013-04-09 03:24:00,47.1,41.0,-100.00,South,191,1.0,5.0,79,0.00,,,0.00,meteohub,2013-04-09 07:24:00,
2013-04-09 03:29:00,46.8,40.6,-100.00,SE,136,2.0,4.0,79,0.00,,,0.00,meteohub,2013-04-09 07:29:00,
2013-04-09 03:34:00,47.7,41.7,-100.00,South,170,2.0,6.0,80,0.00,,,0.00,meteohub,2013-04-09 07:34:00,
2013-04-09 03:40:00,46.8,41.0,-100.00,SSE,154,3.0,6.0,80,0.00,,,0.00,meteohub,2013-04-09 07:40:00,
2013-04-09 03:45:00,46.6,41.0,-100.00,SW,219,2.0,6.0,81,0.00,,,0.00,meteohub,2013-04-09 07:45:00,
2013-04-09 03:50:00,46.6,41.0,-100.00,South,187,1.0,6.0,81,0.00,,,0.00,meteohub,2013-04-09 07:50:00,
2013-04-09 03:55:00,46.6,41.0,-100.00,SSE,154,0.0,4.0,81,0.00,,,0.00,meteohub,2013-04-09 07:55:00,
2013-04-09 04:01:00,46.2,40.6,-100.00,SSE,154,0.0,4.0,81,0.00,,,0.00,meteohub,2013-04-09 08:01:00,
2013-04-09 04:06:00,46.6,41.0,-100.00,ESE,113,1.0,4.0,81,0.00,,,0.00,meteohub,2013-04-09 08:06:00,
2013-04-09 04:11:00,46.6,41.0,-100.00,SE,143,0.0,4.0,81,0.00,,,0.00,meteohub,2013-04-09 08:11:00,
2013-04-09 04:17:00,46.6,41.0,-100.00,SE,143,0.0,4.0,81,0.00,,,0.00,meteohub,2013-04-09 08:17:00,
2013-04-09 04:22:00,46.2,41.0,-100.00,NW,326,0.0,4.0,82,0.00,,,0.00,meteohub,2013-04-09 08:22:00,
2013-04-09 04:27:00,46.8,41.5,-100.00,NW,326,0.0,1.0,82,0.00,,,0.00,meteohub,2013-04-09 08:27:00,
2013-04-09 04:32:00,46.6,42.1,-100.00,SSE,150,2.0,4.0,84,0.00,,,0.00,meteohub,2013-04-09 08:32:00,
2013-04-09 04:37:00,46.8,42.4,-100.00,ESE,119,0.0,4.0,85,0.00,,,0.00,meteohub,2013-04-09 08:37:00,
2013-04-09 04:43:00,46.2,42.3,-100.00,SSE,165,0.0,4.0,86,0.00,,,0.00,meteohub,2013-04-09 08:43:00,
2013-04-09 04:48:00,46.0,43.0,-100.00,NNW,336,4.0,4.0,89,0.02,,,0.01,meteohub,2013-04-09 08:48:00,
2013-04-09 04:53:00,46.0,43.0,-100.00,SE,127,0.0,6.0,89,0.04,,,0.04,meteohub,2013-04-09 08:53:00,
2013-04-09 04:58:00,46.2,43.5,-100.00,SSE,161,0.0,6.0,90,0.04,,,0.04,meteohub,2013-04-09 08:58:00,
2013-04-09 05:04:00,45.3,42.8,-100.00,SSE,161,0.0,6.0,91,0.05,,,0.05,meteohub,2013-04-09 09:04:00,
2013-04-09 05:09:00,46.8,44.2,-100.00,SSE,161,0.0,4.0,91,0.05,,,0.05,meteohub,2013-04-09 09:09:00,
2013-04-09 05:14:00,45.9,43.7,-100.00,NNE,33,0.0,2.0,92,0.05,,,0.05,meteohub,2013-04-09 09:14:00,
2013-04-09 05:20:00,46.0,44.1,-100.00,North,2,0.0,4.0,93,0.05,,,0.05,meteohub,2013-04-09 09:20:00,
2013-04-09 05:25:00,45.7,43.7,-100.00,North,2,0.0,4.0,93,0.05,,,0.05,meteohub,2013-04-09 09:25:00,
2013-04-09 05:30:00,46.0,44.1,-100.00,North,2,0.0,4.0,93,0.05,,,0.05,meteohub,2013-04-09 09:30:00,
2013-04-09 05:35:00,46.0,44.1,-100.00,North,2,0.0,1.0,93,0.05,,,0.05,meteohub,2013-04-09 09:35:00,
2013-04-09 05:40:00,46.0,44.1,-100.00,North,2,0.0,0.0,93,0.05,,,0.05,meteohub,2013-04-09 09:40:00,
2013-04-09 05:45:00,46.0,44.4,-100.00,North,2,0.0,0.0,94,0.05,,,0.05,meteohub,2013-04-09 09:45:00,
2013-04-09 05:51:00,46.6,45.0,-100.00,SE,126,0.0,0.0,94,0.01,,,0.05,meteohub,2013-04-09 09:51:00,
2013-04-09 05:56:00,46.0,44.6,-100.00,South,175,3.0,3.0,95,0.01,,,0.05,meteohub,2013-04-09 09:56:00,
2013-04-09 06:01:00,45.7,44.4,-100.00,SSE,150,0.0,3.0,95,0.00,,,0.05,meteohub,2013-04-09 10:01:00,
2013-04-09 06:06:00,45.0,43.7,-100.00,South,187,2.0,3.0,95,0.00,,,0.05,meteohub,2013-04-09 10:06:00,
2013-04-09 06:11:00,45.7,44.4,-100.00,SSW,205,0.0,3.0,95,0.00,,,0.05,meteohub,2013-04-09 10:11:00,
2013-04-09 06:17:00,46.2,44.8,-100.00,South,175,2.0,3.0,95,0.00,,,0.05,meteohub,2013-04-09 10:17:00,
2013-04-09 06:23:00,45.9,44.4,-100.00,ESE,120,0.0,3.0,95,0.00,,,0.05,meteohub,2013-04-09 10:23:00,
2013-04-09 06:28:00,45.7,44.4,-100.00,SE,129,0.0,3.0,95,0.00,,,0.05,meteohub,2013-04-09 10:28:00,
2013-04-09 06:33:00,45.7,44.4,-100.00,SE,129,0.0,3.0,95,0.00,,,0.05,meteohub,2013-04-09 10:33:00,
2013-04-09 06:39:00,46.2,44.8,-100.00,SE,129,0.0,2.0,95,0.00,,,0.05,meteohub,2013-04-09 10:39:00,
2013-04-09 06:44:00,45.9,44.4,-100.00,SE,129,0.0,2.0,95,0.00,,,0.05,meteohub,2013-04-09 10:44:00,
2013-04-09 06:50:00,45.9,44.4,-100.00,SE,129,0.0,0.0,95,0.00,,,0.05,meteohub,2013-04-09 10:50:00,
2013-04-09 06:55:00,46.6,45.1,-100.00,SE,129,0.0,0.0,95,0.00,,,0.05,meteohub,2013-04-09 10:55:00,
2013-04-09 07:00:00,46.6,45.1,-100.00,SE,129,0.0,0.0,95,0.00,,,0.05,meteohub,2013-04-09 11:00:00,
2013-04-09 07:05:00,46.8,45.3,-100.00,SE,129,0.0,0.0,95,0.00,,,0.05,meteohub,2013-04-09 11:05:00,
2013-04-09 07:10:00,46.2,44.8,-100.00,SE,129,0.0,0.0,95,0.00,,,0.05,meteohub,2013-04-09 11:10:00,
2013-04-09 07:15:00,46.0,44.6,-100.00,South,180,1.0,2.0,95,0.00,,,0.05,meteohub,2013-04-09 11:15:00,
2013-04-09 07:21:00,47.3,45.9,-100.00,SW,229,0.0,2.0,95,0.00,,,0.05,meteohub,2013-04-09 11:21:00,
2013-04-09 07:26:00,45.9,44.4,-100.00,SW,229,0.0,2.0,95,0.00,,,0.05,meteohub,2013-04-09 11:26:00,
2013-04-09 07:31:00,46.2,44.8,-100.00,SSE,165,0.0,2.0,95,0.00,,,0.05,meteohub,2013-04-09 11:31:00,
2013-04-09 07:37:00,47.3,45.9,-100.00,SSE,165,0.0,2.0,95,0.00,,,0.05,meteohub,2013-04-09 11:37:00,
2013-04-09 07:42:00,46.8,45.3,-100.00,SSE,165,0.0,2.0,95,0.00,,,0.05,meteohub,2013-04-09 11:42:00,
2013-04-09 07:47:00,46.6,45.1,-100.00,West,268,1.0,5.0,95,0.00,,,0.05,meteohub,2013-04-09 11:47:00,
2013-04-09 07:53:00,47.8,46.4,-100.00,West,267,0.0,5.0,95,0.00,,,0.05,meteohub,2013-04-09 11:53:00,
2013-04-09 07:58:00,48.4,46.9,-100.00,West,262,3.0,5.0,95,0.00,,,0.05,meteohub,2013-04-09 11:58:00,
2013-04-09 08:03:00,48.9,47.8,-100.00,WNW,291,3.0,7.0,96,0.00,,,0.05,meteohub,2013-04-09 12:03:00,
2013-04-09 08:09:00,48.4,47.3,-100.00,WNW,289,0.0,7.0,96,0.00,,,0.05,meteohub,2013-04-09 12:09:00,
2013-04-09 08:14:00,48.4,47.3,-100.00,WNW,292,2.0,7.0,96,0.00,,,0.05,meteohub,2013-04-09 12:14:00,
2013-04-09 08:19:00,48.4,47.3,-100.00,SW,234,0.0,5.0,96,0.00,,,0.05,meteohub,2013-04-09 12:19:00,
2013-04-09 08:25:00,48.0,46.9,-100.00,WNW,302,1.0,6.0,96,0.00,,,0.05,meteohub,2013-04-09 12:25:00,
2013-04-09 08:31:00,48.4,47.3,-100.00,WNW,288,5.0,7.0,96,0.00,,,0.05,meteohub,2013-04-09 12:31:00,
2013-04-09 08:37:00,47.8,46.8,-100.00,WSW,240,0.0,7.0,96,0.00,,,0.05,meteohub,2013-04-09 12:37:00,
2013-04-09 08:42:00,49.3,48.2,-100.00,SW,217,0.0,6.0,96,0.00,,,0.05,meteohub,2013-04-09 12:42:00,
2013-04-09 08:47:00,49.3,48.2,-100.00,WSW,250,1.0,6.0,96,0.00,,,0.05,meteohub,2013-04-09 12:47:00,
2013-04-09 08:53:00,49.6,48.6,-100.00,WSW,244,1.0,5.0,96,0.00,,,0.05,meteohub,2013-04-09 12:53:00,
2013-04-09 08:58:00,48.6,47.5,-100.00,North,352,0.0,5.0,96,0.00,,,0.05,meteohub,2013-04-09 12:58:00,
2013-04-09 09:03:00,49.6,48.6,-100.00,WNW,292,5.0,5.0,96,0.00,,,0.05,meteohub,2013-04-09 13:03:00,
2013-04-09 09:09:00,50.5,49.5,-100.00,WNW,285,3.0,5.0,96,0.00,,,0.05,meteohub,2013-04-09 13:09:00,
2013-04-09 09:14:00,50.2,49.1,-100.00,West,267,0.0,5.0,96,0.00,,,0.05,meteohub,2013-04-09 13:14:00,
2013-04-09 09:19:00,50.5,49.5,-100.00,West,260,3.0,5.0,96,0.00,,,0.05,meteohub,2013-04-09 13:19:00,
2013-04-09 09:24:00,51.3,50.2,-100.00,WNW,291,1.0,4.0,96,0.00,,,0.05,meteohub,2013-04-09 13:24:00,
2013-04-09 09:30:00,51.6,50.2,-100.00,NW,316,2.0,4.0,95,0.00,,,0.05,meteohub,2013-04-09 13:30:00,
2013-04-09 09:35:00,52.2,50.7,-100.00,West,270,3.0,6.0,95,0.00,,,0.05,meteohub,2013-04-09 13:35:00,
2013-04-09 09:40:00,53.1,51.6,-100.00,SW,217,2.0,6.0,95,0.00,,,0.05,meteohub,2013-04-09 13:40:00,
2013-04-09 09:45:00,55.2,53.8,-100.00,WNW,292,4.0,6.0,95,0.00,,,0.05,meteohub,2013-04-09 13:45:00,
2013-04-09 09:52:00,55.2,53.2,-100.00,WSW,250,1.0,8.0,93,0.00,,,0.05,meteohub,2013-04-09 13:52:00,
2013-04-09 09:57:00,55.2,52.3,-100.00,West,272,2.0,8.0,90,0.00,,,0.05,meteohub,2013-04-09 13:57:00,
2013-04-09 10:02:00,56.1,52.9,-100.00,WNW,286,1.0,8.0,89,0.00,,,0.05,meteohub,2013-04-09 14:02:00,
2013-04-09 10:07:00,57.4,53.6,-100.00,NW,319,7.0,7.0,87,0.00,,,0.05,meteohub,2013-04-09 14:07:00,
2013-04-09 10:12:00,57.2,52.3,-100.00,NNW,334,6.0,8.0,84,0.00,,,0.05,meteohub,2013-04-09 14:12:00,
2013-04-09 10:17:00,58.3,51.4,-100.00,NNW,330,7.0,9.0,78,0.00,,,0.05,meteohub,2013-04-09 14:17:00,
2013-04-09 10:22:00,60.6,53.1,-100.00,NNW,345,5.0,11.0,76,0.00,,,0.05,meteohub,2013-04-09 14:22:00,
2013-04-09 10:27:00,61.3,52.2,-100.00,North,8,6.0,11.0,72,0.00,,,0.05,meteohub,2013-04-09 14:27:00,
2013-04-09 10:32:00,61.5,52.3,-100.00,NNW,329,7.0,16.0,72,0.00,,,0.05,meteohub,2013-04-09 14:32:00,
2013-04-09 10:37:00,60.3,52.0,-100.00,East,80,3.0,16.0,74,0.00,,,0.05,meteohub,2013-04-09 14:37:00,
2013-04-09 10:42:00,61.5,52.0,-100.00,NNW,347,12.0,16.0,71,0.00,,,0.05,meteohub,2013-04-09 14:42:00,
2013-04-09 10:48:00,61.3,51.4,-100.00,NNW,329,7.0,16.0,70,0.00,,,0.05,meteohub,2013-04-09 14:48:00,
2013-04-09 10:53:00,61.0,51.1,-100.00,North,355,4.0,16.0,70,0.00,,,0.05,meteohub,2013-04-09 14:53:00,
2013-04-09 10:58:00,59.5,48.9,-100.00,NW,320,8.0,17.0,68,0.00,,,0.05,meteohub,2013-04-09 14:58:00,
2013-04-09 11:03:00,60.6,50.4,-100.00,NNW,334,4.0,17.0,69,0.00,,,0.05,meteohub,2013-04-09 15:03:00,
2013-04-09 11:09:00,61.5,50.5,-100.00,NNW,341,5.0,17.0,67,0.00,,,0.05,meteohub,2013-04-09 15:09:00,
2013-04-09 11:14:00,61.9,50.0,-100.00,WNW,288,8.0,16.0,65,0.00,,,0.05,meteohub,2013-04-09 15:14:00,
2013-04-09 11:19:00,60.3,48.0,-100.00,WNW,303,6.0,16.0,64,0.00,,,0.05,meteohub,2013-04-09 15:19:00,
2013-04-09 11:24:00,61.3,48.6,-100.00,WNW,296,4.0,16.0,63,0.00,,,0.05,meteohub,2013-04-09 15:24:00,
2013-04-09 11:30:00,62.8,49.1,-100.00,NNE,14,2.0,15.0,61,0.00,,,0.05,meteohub,2013-04-09 15:30:00,
2013-04-09 11:35:00,62.4,47.5,-100.00,North,4,6.0,19.0,58,0.00,,,0.05,meteohub,2013-04-09 15:35:00,
2013-04-09 11:41:00,63.0,46.6,-100.00,WNW,284,11.0,19.0,55,0.00,,,0.05,meteohub,2013-04-09 15:41:00,
2013-04-09 11:46:00,61.5,44.2,-100.00,NW,307,11.0,20.0,53,0.00,,,0.05,meteohub,2013-04-09 15:46:00,
2013-04-09 11:51:00,62.1,45.1,-100.00,NW,305,9.0,20.0,54,0.00,,,0.05,meteohub,2013-04-09 15:51:00,
2013-04-09 11:57:00,62.1,45.1,-100.00,WNW,298,12.0,20.0,54,0.00,,,0.05,meteohub,2013-04-09 15:57:00,
2013-04-09 12:02:00,62.4,45.5,-100.00,NNW,344,5.0,18.0,54,0.00,,,0.05,meteohub,2013-04-09 16:02:00,
2013-04-09 12:07:00,63.3,45.9,-100.00,NNW,334,9.0,19.0,53,0.00,,,0.05,meteohub,2013-04-09 16:07:00,
2013-04-09 12:12:00,62.1,44.8,-100.00,NW,322,9.0,19.0,53,0.00,,,0.05,meteohub,2013-04-09 16:12:00,
2013-04-09 12:17:00,63.7,46.2,-100.00,North,358,6.0,19.0,53,0.00,,,0.05,meteohub,2013-04-09 16:17:00,
2013-04-09 12:22:00,63.7,43.7,-100.00,NNW,347,15.0,19.0,48,0.00,,,0.05,meteohub,2013-04-09 16:22:00,
2013-04-09 12:27:00,64.2,44.1,-100.00,WNW,295,11.0,19.0,48,0.00,,,0.05,meteohub,2013-04-09 16:27:00,
2013-04-09 12:32:00,66.2,45.3,-100.00,WNW,291,9.0,19.0,47,0.00,,,0.05,meteohub,2013-04-09 16:32:00,
2013-04-09 12:37:00,64.4,44.2,-100.00,NNW,344,8.0,17.0,48,0.00,,,0.05,meteohub,2013-04-09 16:37:00,
2013-04-09 12:43:00,65.3,45.1,-100.00,WNW,296,9.0,17.0,48,0.00,,,0.05,meteohub,2013-04-09 16:43:00,
2013-04-09 12:49:00,64.4,43.7,-100.00,WNW,300,9.0,17.0,47,0.00,,,0.05,meteohub,2013-04-09 16:49:00,
2013-04-09 12:55:00,65.8,45.0,-100.00,NW,322,8.0,16.0,47,0.00,,,0.05,meteohub,2013-04-09 16:55:00,
2013-04-09 13:00:00,66.6,44.1,-100.00,NW,305,9.0,15.0,44,0.00,,,0.05,meteohub,2013-04-09 17:00:00,
2013-04-09 13:06:00,65.3,42.8,-100.00,NW,307,16.0,17.0,44,0.00,,,0.05,meteohub,2013-04-09 17:06:00,
2013-04-09 13:11:00,66.2,43.0,-100.00,NNW,348,5.0,17.0,43,0.00,,,0.05,meteohub,2013-04-09 17:11:00,
2013-04-09 13:16:00,66.9,43.7,-100.00,NNW,338,9.0,18.0,43,0.00,,,0.05,meteohub,2013-04-09 17:16:00,
2013-04-09 13:21:00,66.2,41.7,-100.00,WNW,295,7.0,18.0,41,0.00,,,0.05,meteohub,2013-04-09 17:21:00,
2013-04-09 13:26:00,66.6,42.8,-100.00,NW,319,10.0,18.0,42,0.00,,,0.05,meteohub,2013-04-09 17:26:00,
2013-04-09 13:31:00,67.1,42.6,-100.00,WNW,299,6.0,17.0,41,0.00,,,0.05,meteohub,2013-04-09 17:31:00,
2013-04-09 13:37:00,66.6,42.1,-100.00,North,358,8.0,20.0,41,0.00,,,0.05,meteohub,2013-04-09 17:37:00,
2013-04-09 13:42:00,67.5,43.0,-100.00,NNW,347,6.0,20.0,41,0.00,,,0.05,meteohub,2013-04-09 17:42:00,
2013-04-09 13:47:00,65.7,41.4,-100.00,NNE,12,5.0,20.0,41,0.00,,,0.05,meteohub,2013-04-09 17:47:00,
2013-04-09 13:52:00,66.9,41.2,-100.00,NW,310,19.0,19.0,39,0.00,,,0.05,meteohub,2013-04-09 17:52:00,
2013-04-09 13:58:00,66.9,40.5,-100.00,NW,326,8.0,21.0,38,0.00,,,0.05,meteohub,2013-04-09 17:58:00,
2013-04-09 14:03:00,67.6,41.7,-100.00,NNE,30,5.0,21.0,39,0.00,,,0.05,meteohub,2013-04-09 18:03:00,
2013-04-09 14:09:00,66.9,41.9,-100.00,NW,316,5.0,21.0,40,0.00,,,0.05,meteohub,2013-04-09 18:09:00,
2013-04-09 14:15:00,67.5,41.0,-100.00,NW,322,8.0,21.0,38,0.00,,,0.05,meteohub,2013-04-09 18:15:00,
2013-04-09 14:20:00,67.6,41.2,-100.00,NW,312,6.0,17.0,38,0.00,,,0.05,meteohub,2013-04-09 18:20:00,
2013-04-09 14:26:00,69.6,42.8,-100.00,WNW,296,10.0,15.0,38,0.00,,,0.05,meteohub,2013-04-09 18:26:00,
2013-04-09 14:31:00,69.1,41.7,-100.00,NNW,337,5.0,15.0,37,0.00,,,0.05,meteohub,2013-04-09 18:31:00,
2013-04-09 14:36:00,68.4,42.4,-100.00,WNW,288,13.0,15.0,39,0.00,,,0.05,meteohub,2013-04-09 18:36:00,
2013-04-09 14:42:00,68.5,41.2,-100.00,North,354,5.0,18.0,37,0.00,,,0.05,meteohub,2013-04-09 18:42:00,
2013-04-09 14:47:00,68.4,41.0,-100.00,NNW,340,9.0,18.0,37,0.00,,,0.05,meteohub,2013-04-09 18:47:00,
2013-04-09 14:52:00,67.5,41.7,-100.00,NW,319,7.0,18.0,39,0.00,,,0.05,meteohub,2013-04-09 18:52:00,
2013-04-09 14:57:00,68.5,41.9,-100.00,WNW,293,9.0,17.0,38,0.00,,,0.05,meteohub,2013-04-09 18:57:00,
2013-04-09 15:02:00,67.6,41.2,-100.00,NW,307,8.0,15.0,38,0.00,,,0.05,meteohub,2013-04-09 19:02:00,
2013-04-09 15:07:00,67.8,41.4,-100.00,NW,310,10.0,13.0,38,0.00,,,0.05,meteohub,2013-04-09 19:07:00,
2013-04-09 15:12:00,68.7,42.1,-100.00,NNW,333,7.0,16.0,38,0.00,,,0.05,meteohub,2013-04-09 19:12:00,
2013-04-09 15:18:00,68.7,42.1,-100.00,NNW,336,5.0,16.0,38,0.00,,,0.05,meteohub,2013-04-09 19:18:00,
2013-04-09 15:23:00,67.5,40.3,-100.00,WNW,292,6.0,16.0,37,0.00,,,0.05,meteohub,2013-04-09 19:23:00,
2013-04-09 15:28:00,67.6,41.7,-100.00,NW,306,10.0,15.0,39,0.00,,,0.05,meteohub,2013-04-09 19:28:00,
2013-04-09 15:33:00,68.4,41.7,-100.00,NNW,331,5.0,15.0,38,0.00,,,0.05,meteohub,2013-04-09 19:33:00,
2013-04-09 15:39:00,68.5,41.2,-100.00,NNW,331,5.0,13.0,37,0.00,,,0.05,meteohub,2013-04-09 19:39:00,
2013-04-09 15:44:00,67.1,39.9,-100.00,WNW,299,10.0,16.0,37,0.00,,,0.05,meteohub,2013-04-09 19:44:00,
2013-04-09 15:49:00,68.5,41.9,-100.00,North,351,6.0,16.0,38,0.00,,,0.05,meteohub,2013-04-09 19:49:00,
2013-04-09 15:54:00,68.7,41.4,-100.00,NNE,33,6.0,16.0,37,0.00,,,0.05,meteohub,2013-04-09 19:54:00,
2013-04-09 16:00:00,67.8,41.4,-100.00,ESE,102,5.0,11.0,38,0.00,,,0.05,meteohub,2013-04-09 20:00:00,
2013-04-09 16:05:00,68.4,40.3,-100.00,NW,309,9.0,12.0,36,0.00,,,0.05,meteohub,2013-04-09 20:05:00,
2013-04-09 16:10:00,68.4,40.3,-100.00,NNW,333,6.0,12.0,36,0.00,,,0.05,meteohub,2013-04-09 20:10:00,
2013-04-09 16:15:00,67.6,39.7,-100.00,NNW,345,10.0,12.0,36,0.00,,,0.05,meteohub,2013-04-09 20:15:00,
2013-04-09 16:20:00,66.9,39.7,-100.00,NNE,25,5.0,13.0,37,0.00,,,0.05,meteohub,2013-04-09 20:20:00,
2013-04-09 16:25:00,66.9,39.7,-100.00,WNW,299,11.0,14.0,37,0.00,,,0.05,meteohub,2013-04-09 20:25:00,
2013-04-09 16:31:00,65.8,38.8,-100.00,NNW,330,10.0,14.0,37,0.00,,,0.05,meteohub,2013-04-09 20:31:00,
2013-04-09 16:36:00,66.2,39.2,-100.00,NNW,340,7.0,14.0,37,0.00,,,0.05,meteohub,2013-04-09 20:36:00,
2013-04-09 16:41:00,66.6,39.6,-100.00,West,274,9.0,14.0,37,0.00,,,0.05,meteohub,2013-04-09 20:41:00,
2013-04-09 16:47:00,67.6,39.7,-100.00,WNW,293,10.0,13.0,36,0.00,,,0.05,meteohub,2013-04-09 20:47:00,
2013-04-09 16:52:00,67.6,40.5,-100.00,NNW,333,4.0,15.0,37,0.00,,,0.05,meteohub,2013-04-09 20:52:00,
2013-04-09 16:57:00,67.1,39.2,-100.00,NNE,16,5.0,15.0,36,0.00,,,0.05,meteohub,2013-04-09 20:57:00,
2013-04-09 17:02:00,66.9,40.5,-100.00,NNE,12,6.0,15.0,38,0.00,,,0.05,meteohub,2013-04-09 21:02:00,
2013-04-09 17:08:00,65.8,40.1,-100.00,NW,322,4.0,13.0,39,0.00,,,0.05,meteohub,2013-04-09 21:08:00,
2013-04-09 17:13:00,68.4,42.4,-100.00,NE,40,5.0,13.0,39,0.00,,,0.05,meteohub,2013-04-09 21:13:00,
2013-04-09 17:19:00,65.8,40.1,-100.00,NNW,327,6.0,11.0,39,0.00,,,0.05,meteohub,2013-04-09 21:19:00,
2013-04-09 17:24:00,64.2,38.7,-100.00,NNW,345,6.0,12.0,39,0.00,,,0.05,meteohub,2013-04-09 21:24:00,
2013-04-09 17:29:00,64.4,39.6,-100.00,WNW,282,6.0,12.0,40,0.00,,,0.05,meteohub,2013-04-09 21:29:00,
2013-04-09 17:34:00,64.2,38.7,-100.00,NW,309,7.0,14.0,39,0.00,,,0.05,meteohub,2013-04-09 21:34:00,
2013-04-09 17:39:00,65.3,40.3,-100.00,WNW,289,5.0,14.0,40,0.00,,,0.05,meteohub,2013-04-09 21:39:00,
2013-04-09 17:45:00,65.3,39.7,-100.00,North,350,6.0,14.0,39,0.00,,,0.05,meteohub,2013-04-09 21:45:00,
2013-04-09 17:50:00,65.7,40.1,-100.00,North,350,7.0,11.0,39,0.00,,,0.05,meteohub,2013-04-09 21:50:00,
2013-04-09 17:56:00,64.8,39.2,-100.00,North,354,6.0,10.0,39,0.00,,,0.05,meteohub,2013-04-09 21:56:00,
2013-04-09 18:02:00,66.2,39.9,-100.00,NW,309,1.0,10.0,38,0.00,,,0.05,meteohub,2013-04-09 22:02:00,
2013-04-09 18:07:00,64.4,38.8,-100.00,NNW,348,5.0,10.0,39,0.00,,,0.05,meteohub,2013-04-09 22:07:00,
2013-04-09 18:12:00,63.7,38.8,-100.00,North,358,6.0,10.0,40,0.00,,,0.05,meteohub,2013-04-09 22:12:00,
2013-04-09 18:17:00,64.2,40.1,-100.00,North,5,0.0,9.0,41,0.00,,,0.05,meteohub,2013-04-09 22:17:00,
2013-04-09 18:23:00,64.2,40.1,-100.00,NNW,341,5.0,9.0,41,0.00,,,0.05,meteohub,2013-04-09 22:23:00,
2013-04-09 18:28:00,63.7,40.1,-100.00,NNW,347,5.0,9.0,42,0.00,,,0.05,meteohub,2013-04-09 22:28:00,
2013-04-09 18:33:00,63.3,38.7,-100.00,North,357,3.0,9.0,40,0.00,,,0.05,meteohub,2013-04-09 22:33:00,
2013-04-09 18:39:00,62.4,38.5,-100.00,NNW,348,2.0,9.0,41,0.00,,,0.05,meteohub,2013-04-09 22:39:00,
2013-04-09 18:44:00,63.0,38.8,-100.00,NNE,32,3.0,9.0,41,0.00,,,0.05,meteohub,2013-04-09 22:44:00,
2013-04-09 18:49:00,63.0,38.8,-100.00,NW,310,5.0,8.0,41,0.00,,,0.05,meteohub,2013-04-09 22:49:00,
2013-04-09 18:54:00,62.1,38.1,-100.00,NW,316,3.0,8.0,41,0.00,,,0.05,meteohub,2013-04-09 22:54:00,
2013-04-09 18:59:00,61.3,38.1,-100.00,NW,324,4.0,8.0,42,0.00,,,0.05,meteohub,2013-04-09 22:59:00,
2013-04-09 19:04:00,62.4,39.0,-100.00,NNW,336,2.0,7.0,42,0.00,,,0.05,meteohub,2013-04-09 23:04:00,
2013-04-09 19:10:00,60.4,37.8,-100.00,NNW,329,2.0,7.0,43,0.00,,,0.05,meteohub,2013-04-09 23:10:00,
2013-04-09 19:15:00,62.1,39.4,-100.00,North,357,0.0,7.0,43,0.00,,,0.05,meteohub,2013-04-09 23:15:00,
2013-04-09 19:20:00,60.3,38.8,-100.00,NW,316,0.0,6.0,45,0.00,,,0.05,meteohub,2013-04-09 23:20:00,
2013-04-09 19:25:00,60.4,39.0,-100.00,NNE,23,2.0,7.0,45,0.00,,,0.05,meteohub,2013-04-09 23:25:00,
2013-04-09 19:30:00,60.4,39.0,-100.00,NW,316,3.0,7.0,45,0.00,,,0.05,meteohub,2013-04-09 23:30:00,
2013-04-09 19:35:00,59.5,38.1,-100.00,NW,309,0.0,4.0,45,0.00,,,0.05,meteohub,2013-04-09 23:35:00,
2013-04-09 19:41:00,58.6,37.4,-100.00,NW,309,0.0,4.0,45,0.00,,,0.05,meteohub,2013-04-09 23:41:00,
2013-04-09 19:46:00,59.4,38.7,-100.00,NW,309,0.0,3.0,46,0.00,,,0.05,meteohub,2013-04-09 23:46:00,
2013-04-09 19:51:00,59.5,39.4,-100.00,NW,309,0.0,0.0,47,0.00,,,0.05,meteohub,2013-04-09 23:51:00,
2013-04-09 19:56:00,59.4,39.2,-100.00,NW,309,0.0,0.0,47,0.00,,,0.05,meteohub,2013-04-09 23:56:00,
2013-04-09 20:02:00,59.9,39.6,-100.00,NW,309,0.0,0.0,47,0.00,,,0.05,meteohub,2013-04-10 00:02:00,
2013-04-09 20:07:00,58.5,38.3,-100.00,NW,309,0.0,0.0,47,0.00,,,0.05,meteohub,2013-04-10 00:07:00,
2013-04-09 20:12:00,59.4,39.2,-100.00,NW,309,0.0,0.0,47,0.00,,,0.05,meteohub,2013-04-10 00:12:00,
2013-04-09 20:17:00,58.5,39.4,-100.00,NW,309,0.0,0.0,49,0.00,,,0.05,meteohub,2013-04-10 00:17:00,
2013-04-09 20:22:00,58.3,39.2,-100.00,NW,309,0.0,0.0,49,0.00,,,0.05,meteohub,2013-04-10 00:22:00,
2013-04-09 20:27:00,58.3,39.7,-100.00,NW,309,0.0,0.0,50,0.00,,,0.05,meteohub,2013-04-10 00:27:00,
2013-04-09 20:32:00,57.9,39.4,-100.00,NNW,336,0.0,0.0,50,0.00,,,0.05,meteohub,2013-04-10 00:32:00,
2013-04-09 20:38:00,58.3,40.3,-100.00,NNW,336,0.0,3.0,51,0.00,,,0.05,meteohub,2013-04-10 00:38:00,
2013-04-09 20:43:00,56.7,38.7,-100.00,NNW,336,0.0,3.0,51,0.00,,,0.05,meteohub,2013-04-10 00:43:00,
2013-04-09 20:48:00,57.4,39.4,-100.00,NNW,336,0.0,3.0,51,0.00,,,0.05,meteohub,2013-04-10 00:48:00,
2013-04-09 20:53:00,57.7,39.7,-100.00,NNW,336,0.0,0.0,51,0.00,,,0.05,meteohub,2013-04-10 00:53:00,
2013-04-09 20:58:00,57.7,40.3,-100.00,NNW,336,0.0,0.0,52,0.00,,,0.05,meteohub,2013-04-10 00:58:00,
2013-04-09 21:03:00,57.2,39.7,-100.00,NNW,336,0.0,0.0,52,0.00,,,0.05,meteohub,2013-04-10 01:03:00,
2013-04-09 21:08:00,56.7,39.7,-100.00,NNW,336,0.0,0.0,53,0.00,,,0.05,meteohub,2013-04-10 01:08:00,
2013-04-09 21:14:00,55.8,39.4,-100.00,NNW,336,0.0,0.0,54,0.00,,,0.05,meteohub,2013-04-10 01:14:00,
2013-04-09 21:19:00,56.8,40.5,-100.00,NNW,336,0.0,0.0,54,0.00,,,0.05,meteohub,2013-04-10 01:19:00,
2013-04-09 21:24:00,55.2,38.8,-100.00,NNW,336,0.0,0.0,54,0.00,,,0.05,meteohub,2013-04-10 01:24:00,
2013-04-09 21:29:00,55.2,38.8,-100.00,NNW,336,0.0,0.0,54,0.00,,,0.05,meteohub,2013-04-10 01:29:00,
2013-04-09 21:34:00,55.8,39.4,-100.00,NNW,336,0.0,0.0,54,0.00,,,0.05,meteohub,2013-04-10 01:34:00,
2013-04-09 21:39:00,56.3,40.3,-100.00,NNW,336,0.0,0.0,55,0.00,,,0.05,meteohub,2013-04-10 01:39:00,
2013-04-09 21:44:00,55.2,39.4,-100.00,NNW,336,0.0,0.0,55,0.00,,,0.05,meteohub,2013-04-10 01:44:00,
2013-04-09 21:50:00,56.1,40.1,-100.00,NNW,336,0.0,0.0,55,0.00,,,0.05,meteohub,2013-04-10 01:50:00,
2013-04-09 21:55:00,55.8,39.9,-100.00,NNW,336,0.0,0.0,55,0.00,,,0.05,meteohub,2013-04-10 01:55:00,
2013-04-09 22:00:00,55.6,39.7,-100.00,NNW,336,0.0,0.0,55,0.00,,,0.05,meteohub,2013-04-10 02:00:00,
2013-04-09 22:05:00,55.2,39.4,-100.00,NNW,336,0.0,0.0,55,0.00,,,0.05,meteohub,2013-04-10 02:05:00,
2013-04-09 22:11:00,55.8,40.3,-100.00,NNW,336,0.0,0.0,56,0.00,,,0.05,meteohub,2013-04-10 02:11:00,
2013-04-09 22:16:00,55.2,39.7,-100.00,NNW,336,0.0,0.0,56,0.00,,,0.05,meteohub,2013-04-10 02:16:00,
2013-04-09 22:21:00,55.2,40.3,-100.00,NNW,336,0.0,0.0,57,0.00,,,0.05,meteohub,2013-04-10 02:21:00,
2013-04-09 22:26:00,55.2,40.3,-100.00,NNW,336,0.0,0.0,57,0.00,,,0.05,meteohub,2013-04-10 02:26:00,
2013-04-09 22:31:00,56.1,41.5,-100.00,NNW,336,0.0,0.0,58,0.00,,,0.05,meteohub,2013-04-10 02:31:00,
2013-04-09 22:36:00,55.8,40.8,-100.00,NNW,336,0.0,0.0,57,0.00,,,0.05,meteohub,2013-04-10 02:36:00,
2013-04-09 22:42:00,54.7,39.7,-100.00,NNW,336,0.0,0.0,57,0.00,,,0.05,meteohub,2013-04-10 02:42:00,
2013-04-09 22:47:00,55.0,39.6,-100.00,NNW,336,0.0,0.0,56,0.00,,,0.05,meteohub,2013-04-10 02:47:00,
2013-04-09 22:52:00,55.8,40.3,-100.00,NNW,336,0.0,0.0,56,0.00,,,0.05,meteohub,2013-04-10 02:52:00,
2013-04-09 22:57:00,54.1,39.2,-100.00,NNW,336,0.0,0.0,57,0.00,,,0.05,meteohub,2013-04-10 02:57:00,
2013-04-09 23:02:00,54.1,39.2,-100.00,NNW,336,0.0,0.0,57,0.00,,,0.05,meteohub,2013-04-10 03:02:00,
2013-04-09 23:07:00,55.2,40.3,-100.00,NNW,336,0.0,0.0,57,0.00,,,0.05,meteohub,2013-04-10 03:07:00,
2013-04-09 23:12:00,55.2,40.6,-100.00,NNW,336,0.0,0.0,58,0.00,,,0.05,meteohub,2013-04-10 03:12:00,
2013-04-09 23:18:00,54.5,40.1,-100.00,NNW,336,0.0,0.0,58,0.00,,,0.05,meteohub,2013-04-10 03:18:00,
2013-04-09 23:23:00,55.0,41.0,-100.00,South,188,2.0,0.0,59,0.00,,,0.05,meteohub,2013-04-10 03:23:00,
2013-04-09 23:28:00,55.6,41.9,-100.00,SSE,153,0.0,2.0,60,0.00,,,0.05,meteohub,2013-04-10 03:28:00,
2013-04-09 23:33:00,54.7,41.0,-100.00,SSE,153,0.0,2.0,60,0.00,,,0.05,meteohub,2013-04-10 03:33:00,
2013-04-09 23:39:00,54.1,40.6,-100.00,SSE,153,0.0,2.0,60,0.00,,,0.05,meteohub,2013-04-10 03:39:00,
2013-04-09 23:44:00,55.0,41.4,-100.00,SSE,153,0.0,0.0,60,0.00,,,0.05,meteohub,2013-04-10 03:44:00,
2013-04-09 23:49:00,54.5,40.8,-100.00,SSE,153,0.0,0.0,60,0.00,,,0.05,meteohub,2013-04-10 03:49:00,
2013-04-09 23:54:00,54.0,40.5,-100.00,SSE,153,0.0,0.0,60,0.00,,,0.05,meteohub,2013-04-10 03:54:00,
2013-04-09 23:59:00,54.1,40.6,-100.00,SSE,153,0.0,0.0,60,0.00,,,0.05,meteohub,2013-04-10 03:59:00,